sensor_id;sensor_type;location;lat;lon;timestamp;temperature;humidity
12166;DHT22;6146;48.128;11.476;2023-06-26T00:02:00;18.20;99.90
12166;DHT22;6146;48.128;11.476;2023-06-26T00:04:26;18.20;99.90
12166;DHT22;6146;48.128;11.476;2023-06-26T00:06:52;18.10;99.90
12166;DHT22;6146;48.128;11.476;2023-06-26T00:09:17;18.00;99.90
12166;DHT22;6146;48.128;11.476;2023-06-26T00:11:43;17.90;99.90
12166;DHT22;6146;48.128;11.476;2023-06-26T00:14:08;17.90;99.90
12166;DHT22;6146;48.128;11.476;2023-06-26T00:16:34;17.70;99.90
12166;DHT22;6146;48.128;11.476;2023-06-26T00:18:59;17.60;99.90
12166;DHT22;6146;48.128;11.476;2023-06-26T00:21:25;17.50;99.90
12166;DHT22;6146;48.128;11.476;2023-06-26T00:23:51;17.50;99.90
12166;DHT22;6146;48.128;11.476;2023-06-26T00:26:17;17.50;99.90
12166;DHT22;6146;48.128;11.476;2023-06-26T00:28:42;17.50;99.90
12166;DHT22;6146;48.128;11.476;2023-06-26T00:31:08;17.40;99.90
12166;DHT22;6146;48.128;11.476;2023-06-26T00:33:33;17.40;99.90
12166;DHT22;6146;48.128;11.476;2023-06-26T00:35:59;17.40;99.90
12166;DHT22;6146;48.128;11.476;2023-06-26T00:38:25;17.40;99.90
12166;DHT22;6146;48.128;11.476;2023-06-26T00:40:50;17.30;99.90
12166;DHT22;6146;48.128;11.476;2023-06-26T00:43:16;17.30;99.90
12166;DHT22;6146;48.128;11.476;2023-06-26T00:45:41;17.30;99.90
12166;DHT22;6146;48.128;11.476;2023-06-26T00:48:09;17.30;99.90
12166;DHT22;6146;48.128;11.476;2023-06-26T00:50:37;17.30;99.90
12166;DHT22;6146;48.128;11.476;2023-06-26T00:53:03;17.30;99.90
12166;DHT22;6146;48.128;11.476;2023-06-26T00:55:29;17.30;99.90
12166;DHT22;6146;48.128;11.476;2023-06-26T00:57:55;17.30;99.90
12166;DHT22;6146;48.128;11.476;2023-06-26T01:00:21;17.30;99.90
12166;DHT22;6146;48.128;11.476;2023-06-26T01:02:47;17.30;99.90
12166;DHT22;6146;48.128;11.476;2023-06-26T01:05:13;17.30;99.90
12166;DHT22;6146;48.128;11.476;2023-06-26T01:07:47;17.30;99.90
12166;DHT22;6146;48.128;11.476;2023-06-26T01:10:13;17.30;99.90
12166;DHT22;6146;48.128;11.476;2023-06-26T01:12:39;17.30;99.90
12166;DHT22;6146;48.128;11.476;2023-06-26T01:15:05;17.30;99.90
12166;DHT22;6146;48.128;11.476;2023-06-26T01:17:31;17.20;99.90
12166;DHT22;6146;48.128;11.476;2023-06-26T01:20:01;17.20;99.90
12166;DHT22;6146;48.128;11.476;2023-06-26T01:22:39;17.20;99.90
12166;DHT22;6146;48.128;11.476;2023-06-26T01:27:56;17.20;99.90
12166;DHT22;6146;48.128;11.476;2023-06-26T01:30:22;17.10;99.90
12166;DHT22;6146;48.128;11.476;2023-06-26T01:32:48;17.10;99.90
12166;DHT22;6146;48.128;11.476;2023-06-26T01:35:15;17.10;99.90
12166;DHT22;6146;48.128;11.476;2023-06-26T01:37:41;17.00;99.90
12166;DHT22;6146;48.128;11.476;2023-06-26T01:40:07;17.00;99.90
12166;DHT22;6146;48.128;11.476;2023-06-26T01:42:33;17.00;99.90
12166;DHT22;6146;48.128;11.476;2023-06-26T01:45:04;17.00;99.90
12166;DHT22;6146;48.128;11.476;2023-06-26T01:47:33;17.00;99.90
12166;DHT22;6146;48.128;11.476;2023-06-26T01:50:24;16.90;99.90
12166;DHT22;6146;48.128;11.476;2023-06-26T01:53:10;16.90;99.90
12166;DHT22;6146;48.128;11.476;2023-06-26T01:55:47;16.90;99.90
12166;DHT22;6146;48.128;11.476;2023-06-26T01:58:17;16.90;99.90
12166;DHT22;6146;48.128;11.476;2023-06-26T02:00:46;16.90;99.90
12166;DHT22;6146;48.128;11.476;2023-06-26T02:03:12;16.80;99.90
12166;DHT22;6146;48.128;11.476;2023-06-26T02:05:37;16.80;99.90
12166;DHT22;6146;48.128;11.476;2023-06-26T02:08:03;16.70;99.90
12166;DHT22;6146;48.128;11.476;2023-06-26T02:10:29;16.70;99.90
12166;DHT22;6146;48.128;11.476;2023-06-26T02:12:55;16.60;99.90
12166;DHT22;6146;48.128;11.476;2023-06-26T02:15:20;16.60;99.90
12166;DHT22;6146;48.128;11.476;2023-06-26T02:17:47;16.60;99.90
12166;DHT22;6146;48.128;11.476;2023-06-26T02:20:14;16.70;99.90
12166;DHT22;6146;48.128;11.476;2023-06-26T02:22:39;16.50;99.90
12166;DHT22;6146;48.128;11.476;2023-06-26T02:25:05;16.50;99.90
12166;DHT22;6146;48.128;11.476;2023-06-26T02:27:31;16.50;99.90
12166;DHT22;6146;48.128;11.476;2023-06-26T02:29:56;16.50;99.90
12166;DHT22;6146;48.128;11.476;2023-06-26T02:32:22;16.40;99.90
12166;DHT22;6146;48.128;11.476;2023-06-26T02:34:47;16.40;99.90
12166;DHT22;6146;48.128;11.476;2023-06-26T02:37:13;16.40;99.90
12166;DHT22;6146;48.128;11.476;2023-06-26T02:39:39;16.40;99.90
12166;DHT22;6146;48.128;11.476;2023-06-26T02:42:05;16.40;99.90
12166;DHT22;6146;48.128;11.476;2023-06-26T02:44:30;16.40;99.90
12166;DHT22;6146;48.128;11.476;2023-06-26T02:46:56;16.40;99.90
12166;DHT22;6146;48.128;11.476;2023-06-26T02:49:21;16.40;99.90
12166;DHT22;6146;48.128;11.476;2023-06-26T02:51:47;16.40;99.90
12166;DHT22;6146;48.128;11.476;2023-06-26T02:54:12;16.40;99.90
12166;DHT22;6146;48.128;11.476;2023-06-26T02:56:38;16.40;99.90
12166;DHT22;6146;48.128;11.476;2023-06-26T02:59:04;16.40;99.90
12166;DHT22;6146;48.128;11.476;2023-06-26T03:01:29;16.40;99.90
12166;DHT22;6146;48.128;11.476;2023-06-26T03:03:55;16.40;99.90
12166;DHT22;6146;48.128;11.476;2023-06-26T03:06:20;16.40;99.90
12166;DHT22;6146;48.128;11.476;2023-06-26T03:08:46;16.40;99.90
12166;DHT22;6146;48.128;11.476;2023-06-26T03:11:12;16.40;99.90
12166;DHT22;6146;48.128;11.476;2023-06-26T03:13:38;16.40;99.90
12166;DHT22;6146;48.128;11.476;2023-06-26T03:16:04;16.40;99.90
12166;DHT22;6146;48.128;11.476;2023-06-26T03:18:29;16.40;99.90
12166;DHT22;6146;48.128;11.476;2023-06-26T03:20:56;16.30;99.90
12166;DHT22;6146;48.128;11.476;2023-06-26T03:23:22;16.30;99.90
12166;DHT22;6146;48.128;11.476;2023-06-26T03:25:48;16.30;99.90
12166;DHT22;6146;48.128;11.476;2023-06-26T03:28:14;16.30;99.90
12166;DHT22;6146;48.128;11.476;2023-06-26T03:30:40;16.30;99.90
12166;DHT22;6146;48.128;11.476;2023-06-26T03:33:06;16.30;99.90
12166;DHT22;6146;48.128;11.476;2023-06-26T03:35:31;16.30;99.90
12166;DHT22;6146;48.128;11.476;2023-06-26T03:37:57;16.40;99.90
12166;DHT22;6146;48.128;11.476;2023-06-26T03:40:23;16.40;99.90
12166;DHT22;6146;48.128;11.476;2023-06-26T03:42:49;16.50;99.90
12166;DHT22;6146;48.128;11.476;2023-06-26T03:45:14;16.60;99.90
12166;DHT22;6146;48.128;11.476;2023-06-26T03:47:40;16.60;99.90
12166;DHT22;6146;48.128;11.476;2023-06-26T03:50:06;16.60;99.90
12166;DHT22;6146;48.128;11.476;2023-06-26T03:52:31;16.70;99.90
12166;DHT22;6146;48.128;11.476;2023-06-26T03:54:57;16.70;99.90
12166;DHT22;6146;48.128;11.476;2023-06-26T03:57:23;16.80;99.90
12166;DHT22;6146;48.128;11.476;2023-06-26T03:59:49;16.80;99.90
12166;DHT22;6146;48.128;11.476;2023-06-26T04:02:14;16.90;99.90
12166;DHT22;6146;48.128;11.476;2023-06-26T04:04:40;16.90;99.90
12166;DHT22;6146;48.128;11.476;2023-06-26T04:07:06;17.00;99.90
12166;DHT22;6146;48.128;11.476;2023-06-26T04:09:31;17.00;99.90
12166;DHT22;6146;48.128;11.476;2023-06-26T04:11:57;17.10;99.90
12166;DHT22;6146;48.128;11.476;2023-06-26T04:14:22;17.20;99.90
12166;DHT22;6146;48.128;11.476;2023-06-26T04:16:48;17.30;99.90
12166;DHT22;6146;48.128;11.476;2023-06-26T04:19:13;17.40;99.90
12166;DHT22;6146;48.128;11.476;2023-06-26T04:21:39;17.30;99.90
12166;DHT22;6146;48.128;11.476;2023-06-26T04:24:05;17.40;99.90
12166;DHT22;6146;48.128;11.476;2023-06-26T04:26:31;17.50;99.90
12166;DHT22;6146;48.128;11.476;2023-06-26T04:28:56;17.60;99.90
12166;DHT22;6146;48.128;11.476;2023-06-26T04:31:22;17.70;99.90
12166;DHT22;6146;48.128;11.476;2023-06-26T04:33:48;17.90;99.90
12166;DHT22;6146;48.128;11.476;2023-06-26T04:36:17;18.30;99.90
12166;DHT22;6146;48.128;11.476;2023-06-26T04:38:43;18.60;99.90
12166;DHT22;6146;48.128;11.476;2023-06-26T04:41:08;19.20;99.90
12166;DHT22;6146;48.128;11.476;2023-06-26T04:43:34;20.40;99.90
12166;DHT22;6146;48.128;11.476;2023-06-26T04:46:02;21.80;99.00
12166;DHT22;6146;48.128;11.476;2023-06-26T04:48:27;23.10;95.90
12166;DHT22;6146;48.128;11.476;2023-06-26T04:50:56;24.10;91.50
12166;DHT22;6146;48.128;11.476;2023-06-26T04:53:22;24.80;87.20
12166;DHT22;6146;48.128;11.476;2023-06-26T04:55:49;25.40;83.40
12166;DHT22;6146;48.128;11.476;2023-06-26T04:58:15;26.30;79.10
12166;DHT22;6146;48.128;11.476;2023-06-26T05:00:41;27.10;72.50
12166;DHT22;6146;48.128;11.476;2023-06-26T05:03:08;27.50;69.10
12166;DHT22;6146;48.128;11.476;2023-06-26T05:05:34;27.90;66.40
12166;DHT22;6146;48.128;11.476;2023-06-26T05:08:13;28.20;63.40
12166;DHT22;6146;48.128;11.476;2023-06-26T05:10:39;28.50;63.40
12166;DHT22;6146;48.128;11.476;2023-06-26T05:13:04;28.80;61.30
12166;DHT22;6146;48.128;11.476;2023-06-26T05:15:30;29.10;61.20
12166;DHT22;6146;48.128;11.476;2023-06-26T05:17:55;29.10;59.30
12166;DHT22;6146;48.128;11.476;2023-06-26T05:20:21;29.10;58.10
12166;DHT22;6146;48.128;11.476;2023-06-26T05:22:46;28.60;59.10
12166;DHT22;6146;48.128;11.476;2023-06-26T05:25:13;28.50;61.60
12166;DHT22;6146;48.128;11.476;2023-06-26T05:27:39;28.70;59.90
12166;DHT22;6146;48.128;11.476;2023-06-26T05:30:06;28.80;59.70
12166;DHT22;6146;48.128;11.476;2023-06-26T05:32:34;29.30;57.20
12166;DHT22;6146;48.128;11.476;2023-06-26T05:35:02;30.10;56.70
12166;DHT22;6146;48.128;11.476;2023-06-26T05:37:28;30.60;53.60
12166;DHT22;6146;48.128;11.476;2023-06-26T05:39:54;31.00;55.00
12166;DHT22;6146;48.128;11.476;2023-06-26T05:42:20;31.70;53.00
12166;DHT22;6146;48.128;11.476;2023-06-26T05:44:46;32.50;50.50
12166;DHT22;6146;48.128;11.476;2023-06-26T05:47:11;33.00;49.10
12166;DHT22;6146;48.128;11.476;2023-06-26T05:49:37;33.30;48.10
12166;DHT22;6146;48.128;11.476;2023-06-26T05:52:03;33.40;47.70
12166;DHT22;6146;48.128;11.476;2023-06-26T05:54:29;33.40;48.10
12166;DHT22;6146;48.128;11.476;2023-06-26T05:56:57;33.20;48.00
12166;DHT22;6146;48.128;11.476;2023-06-26T05:59:25;32.70;49.80
12166;DHT22;6146;48.128;11.476;2023-06-26T06:01:52;33.00;48.40
12166;DHT22;6146;48.128;11.476;2023-06-26T06:04:17;33.60;47.60
12166;DHT22;6146;48.128;11.476;2023-06-26T06:06:43;34.10;46.80
12166;DHT22;6146;48.128;11.476;2023-06-26T06:09:08;35.00;46.50
12166;DHT22;6146;48.128;11.476;2023-06-26T06:11:34;35.80;44.30
12166;DHT22;6146;48.128;11.476;2023-06-26T06:13:59;36.40;42.50
12166;DHT22;6146;48.128;11.476;2023-06-26T06:16:26;36.40;42.80
12166;DHT22;6146;48.128;11.476;2023-06-26T06:18:51;37.20;42.70
12166;DHT22;6146;48.128;11.476;2023-06-26T06:21:17;36.90;41.40
12166;DHT22;6146;48.128;11.476;2023-06-26T06:23:42;37.20;40.60
12166;DHT22;6146;48.128;11.476;2023-06-26T06:26:08;37.70;38.90
12166;DHT22;6146;48.128;11.476;2023-06-26T06:28:33;37.30;38.80
12166;DHT22;6146;48.128;11.476;2023-06-26T06:30:59;37.50;39.50
12166;DHT22;6146;48.128;11.476;2023-06-26T06:33:24;37.80;37.80
12166;DHT22;6146;48.128;11.476;2023-06-26T06:35:50;38.00;38.30
12166;DHT22;6146;48.128;11.476;2023-06-26T06:38:15;38.70;36.80
12166;DHT22;6146;48.128;11.476;2023-06-26T06:40:41;39.00;36.60
12166;DHT22;6146;48.128;11.476;2023-06-26T06:43:06;39.10;35.80
12166;DHT22;6146;48.128;11.476;2023-06-26T06:45:32;39.10;35.00
12166;DHT22;6146;48.128;11.476;2023-06-26T06:47:58;38.90;35.10
12166;DHT22;6146;48.128;11.476;2023-06-26T06:50:23;39.10;36.10
12166;DHT22;6146;48.128;11.476;2023-06-26T06:52:49;39.60;34.20
12166;DHT22;6146;48.128;11.476;2023-06-26T06:55:14;39.70;33.50
12166;DHT22;6146;48.128;11.476;2023-06-26T06:57:40;39.80;33.60
12166;DHT22;6146;48.128;11.476;2023-06-26T07:00:08;39.20;34.40
12166;DHT22;6146;48.128;11.476;2023-06-26T07:02:38;39.10;35.10
12166;DHT22;6146;48.128;11.476;2023-06-26T07:05:04;39.40;33.90
12166;DHT22;6146;48.128;11.476;2023-06-26T07:07:31;39.50;33.70
12166;DHT22;6146;48.128;11.476;2023-06-26T07:10:03;39.20;35.20
12166;DHT22;6146;48.128;11.476;2023-06-26T07:12:28;39.10;34.20
12166;DHT22;6146;48.128;11.476;2023-06-26T07:14:55;38.80;35.00
12166;DHT22;6146;48.128;11.476;2023-06-26T07:17:21;39.10;34.00
12166;DHT22;6146;48.128;11.476;2023-06-26T07:19:47;39.30;33.80
12166;DHT22;6146;48.128;11.476;2023-06-26T07:22:13;39.10;34.10
12166;DHT22;6146;48.128;11.476;2023-06-26T07:24:39;38.90;35.10
12166;DHT22;6146;48.128;11.476;2023-06-26T07:27:04;39.40;35.40
12166;DHT22;6146;48.128;11.476;2023-06-26T07:29:30;39.00;35.50
12166;DHT22;6146;48.128;11.476;2023-06-26T07:31:55;38.50;35.70
12166;DHT22;6146;48.128;11.476;2023-06-26T07:34:21;38.20;35.90
12166;DHT22;6146;48.128;11.476;2023-06-26T07:36:46;38.80;35.50
12166;DHT22;6146;48.128;11.476;2023-06-26T07:39:12;38.80;35.80
12166;DHT22;6146;48.128;11.476;2023-06-26T07:41:37;39.10;35.50
12166;DHT22;6146;48.128;11.476;2023-06-26T07:44:03;39.90;33.60
12166;DHT22;6146;48.128;11.476;2023-06-26T07:46:29;40.20;33.70
12166;DHT22;6146;48.128;11.476;2023-06-26T07:48:54;39.80;33.10
12166;DHT22;6146;48.128;11.476;2023-06-26T07:51:20;39.70;34.30
12166;DHT22;6146;48.128;11.476;2023-06-26T07:53:46;39.70;33.90
12166;DHT22;6146;48.128;11.476;2023-06-26T07:56:12;39.70;34.50
12166;DHT22;6146;48.128;11.476;2023-06-26T07:58:37;40.20;34.40
12166;DHT22;6146;48.128;11.476;2023-06-26T08:01:03;40.50;33.10
12166;DHT22;6146;48.128;11.476;2023-06-26T08:03:28;40.70;33.50
12166;DHT22;6146;48.128;11.476;2023-06-26T08:05:54;41.30;34.00
12166;DHT22;6146;48.128;11.476;2023-06-26T08:08:20;40.80;33.40
12166;DHT22;6146;48.128;11.476;2023-06-26T08:10:45;40.60;33.20
12166;DHT22;6146;48.128;11.476;2023-06-26T08:13:11;40.00;33.50
12166;DHT22;6146;48.128;11.476;2023-06-26T08:15:36;40.10;34.90
12166;DHT22;6146;48.128;11.476;2023-06-26T08:18:02;40.20;34.90
12166;DHT22;6146;48.128;11.476;2023-06-26T08:20:28;40.10;34.10
12166;DHT22;6146;48.128;11.476;2023-06-26T08:22:53;39.70;35.00
12166;DHT22;6146;48.128;11.476;2023-06-26T08:25:20;39.70;34.30
12166;DHT22;6146;48.128;11.476;2023-06-26T08:27:45;40.00;34.10
12166;DHT22;6146;48.128;11.476;2023-06-26T08:30:11;40.10;35.00
12166;DHT22;6146;48.128;11.476;2023-06-26T08:32:38;39.90;34.10
12166;DHT22;6146;48.128;11.476;2023-06-26T08:35:05;39.90;34.50
12166;DHT22;6146;48.128;11.476;2023-06-26T08:37:31;39.80;34.70
12166;DHT22;6146;48.128;11.476;2023-06-26T08:40:00;39.90;35.10
12166;DHT22;6146;48.128;11.476;2023-06-26T08:42:26;40.30;33.70
12166;DHT22;6146;48.128;11.476;2023-06-26T08:44:51;40.70;32.60
12166;DHT22;6146;48.128;11.476;2023-06-26T08:47:19;40.70;33.70
12166;DHT22;6146;48.128;11.476;2023-06-26T08:49:51;40.90;33.10
12166;DHT22;6146;48.128;11.476;2023-06-26T08:52:30;41.30;32.80
12166;DHT22;6146;48.128;11.476;2023-06-26T08:54:59;41.40;32.60
12166;DHT22;6146;48.128;11.476;2023-06-26T08:57:28;41.90;31.10
12166;DHT22;6146;48.128;11.476;2023-06-26T08:59:56;42.00;30.90
12166;DHT22;6146;48.128;11.476;2023-06-26T09:02:22;42.00;31.50
12166;DHT22;6146;48.128;11.476;2023-06-26T09:04:48;41.10;31.30
12166;DHT22;6146;48.128;11.476;2023-06-26T09:07:17;41.00;31.80
12166;DHT22;6146;48.128;11.476;2023-06-26T09:09:43;41.50;30.80
12166;DHT22;6146;48.128;11.476;2023-06-26T09:12:09;41.20;31.90
12166;DHT22;6146;48.128;11.476;2023-06-26T09:14:39;41.20;31.20
12166;DHT22;6146;48.128;11.476;2023-06-26T09:17:05;41.00;31.50
12166;DHT22;6146;48.128;11.476;2023-06-26T09:19:30;41.30;31.70
12166;DHT22;6146;48.128;11.476;2023-06-26T09:21:56;41.10;29.80
12166;DHT22;6146;48.128;11.476;2023-06-26T09:24:22;41.00;30.50
12166;DHT22;6146;48.128;11.476;2023-06-26T09:26:50;41.50;30.40
12166;DHT22;6146;48.128;11.476;2023-06-26T09:29:17;41.90;29.30
12166;DHT22;6146;48.128;11.476;2023-06-26T09:31:44;42.00;29.60
12166;DHT22;6146;48.128;11.476;2023-06-26T09:34:09;41.70;31.00
12166;DHT22;6146;48.128;11.476;2023-06-26T09:36:35;41.90;31.40
12166;DHT22;6146;48.128;11.476;2023-06-26T09:39:06;41.00;29.60
12166;DHT22;6146;48.128;11.476;2023-06-26T09:41:37;40.10;30.60
12166;DHT22;6146;48.128;11.476;2023-06-26T09:44:07;38.90;31.90
12166;DHT22;6146;48.128;11.476;2023-06-26T09:46:38;38.80;33.30
12166;DHT22;6146;48.128;11.476;2023-06-26T09:49:09;38.80;31.50
12166;DHT22;6146;48.128;11.476;2023-06-26T09:51:39;38.70;31.70
12166;DHT22;6146;48.128;11.476;2023-06-26T09:54:06;37.50;33.50
12166;DHT22;6146;48.128;11.476;2023-06-26T09:56:33;36.60;36.80
12166;DHT22;6146;48.128;11.476;2023-06-26T09:59:03;37.50;34.00
12166;DHT22;6146;48.128;11.476;2023-06-26T10:01:30;38.80;33.10
12166;DHT22;6146;48.128;11.476;2023-06-26T10:03:56;39.90;31.30
12166;DHT22;6146;48.128;11.476;2023-06-26T10:06:33;40.50;30.00
12166;DHT22;6146;48.128;11.476;2023-06-26T10:08:59;39.30;30.90
12166;DHT22;6146;48.128;11.476;2023-06-26T10:11:39;38.10;32.10
12166;DHT22;6146;48.128;11.476;2023-06-26T10:14:07;37.10;33.30
12166;DHT22;6146;48.128;11.476;2023-06-26T10:16:33;36.80;33.30
12166;DHT22;6146;48.128;11.476;2023-06-26T10:19:03;37.50;33.30
12166;DHT22;6146;48.128;11.476;2023-06-26T10:21:31;38.80;32.50
12166;DHT22;6146;48.128;11.476;2023-06-26T10:23:59;39.60;31.60
12166;DHT22;6146;48.128;11.476;2023-06-26T10:26:26;40.40;30.40
12166;DHT22;6146;48.128;11.476;2023-06-26T10:28:54;40.70;30.10
12166;DHT22;6146;48.128;11.476;2023-06-26T10:31:24;40.50;29.50
12166;DHT22;6146;48.128;11.476;2023-06-26T10:33:51;39.00;30.40
12166;DHT22;6146;48.128;11.476;2023-06-26T10:36:27;37.60;32.00
12166;DHT22;6146;48.128;11.476;2023-06-26T10:38:56;36.80;34.90
12166;DHT22;6146;48.128;11.476;2023-06-26T10:41:24;37.10;33.80
12166;DHT22;6146;48.128;11.476;2023-06-26T10:44:16;38.30;32.20
12166;DHT22;6146;48.128;11.476;2023-06-26T10:46:49;38.40;32.10
12166;DHT22;6146;48.128;11.476;2023-06-26T10:49:16;37.10;32.60
12166;DHT22;6146;48.128;11.476;2023-06-26T10:51:50;36.70;33.90
12166;DHT22;6146;48.128;11.476;2023-06-26T10:54:17;36.90;33.30
12166;DHT22;6146;48.128;11.476;2023-06-26T10:56:50;36.60;32.60
12166;DHT22;6146;48.128;11.476;2023-06-26T10:59:21;35.90;34.90
12166;DHT22;6146;48.128;11.476;2023-06-26T11:01:54;36.10;36.40
12166;DHT22;6146;48.128;11.476;2023-06-26T11:04:53;36.90;34.90
12166;DHT22;6146;48.128;11.476;2023-06-26T11:07:25;37.40;33.20
12166;DHT22;6146;48.128;11.476;2023-06-26T11:12:43;37.20;34.60
12166;DHT22;6146;48.128;11.476;2023-06-26T11:15:11;36.80;35.30
12166;DHT22;6146;48.128;11.476;2023-06-26T11:17:38;36.20;34.70
12166;DHT22;6146;48.128;11.476;2023-06-26T11:20:12;35.80;35.20
12166;DHT22;6146;48.128;11.476;2023-06-26T11:22:40;36.20;34.30
12166;DHT22;6146;48.128;11.476;2023-06-26T11:25:07;35.90;35.40
12166;DHT22;6146;48.128;11.476;2023-06-26T11:27:43;36.30;35.90
12166;DHT22;6146;48.128;11.476;2023-06-26T11:30:11;36.60;34.40
12166;DHT22;6146;48.128;11.476;2023-06-26T11:32:37;36.30;35.20
12166;DHT22;6146;48.128;11.476;2023-06-26T11:35:03;35.50;36.00
12166;DHT22;6146;48.128;11.476;2023-06-26T11:37:32;35.20;37.20
12166;DHT22;6146;48.128;11.476;2023-06-26T11:40:04;35.30;38.30
12166;DHT22;6146;48.128;11.476;2023-06-26T11:42:40;34.60;38.40
12166;DHT22;6146;48.128;11.476;2023-06-26T11:45:06;34.20;39.20
12166;DHT22;6146;48.128;11.476;2023-06-26T11:47:32;34.20;39.40
12166;DHT22;6146;48.128;11.476;2023-06-26T11:49:58;34.50;40.30
12166;DHT22;6146;48.128;11.476;2023-06-26T11:52:23;34.60;39.50
12166;DHT22;6146;48.128;11.476;2023-06-26T11:54:49;34.50;38.00
12166;DHT22;6146;48.128;11.476;2023-06-26T11:57:15;34.70;37.30
12166;DHT22;6146;48.128;11.476;2023-06-26T11:59:41;34.40;37.80
12166;DHT22;6146;48.128;11.476;2023-06-26T12:02:10;34.40;37.80
12166;DHT22;6146;48.128;11.476;2023-06-26T12:04:38;34.10;38.30
12166;DHT22;6146;48.128;11.476;2023-06-26T12:07:06;34.30;37.90
12166;DHT22;6146;48.128;11.476;2023-06-26T12:09:37;34.10;38.20
12166;DHT22;6146;48.128;11.476;2023-06-26T12:12:03;33.80;39.80
12166;DHT22;6146;48.128;11.476;2023-06-26T12:14:30;33.70;40.60
12166;DHT22;6146;48.128;11.476;2023-06-26T12:16:56;33.60;40.10
12166;DHT22;6146;48.128;11.476;2023-06-26T12:19:29;33.50;40.20
12166;DHT22;6146;48.128;11.476;2023-06-26T12:21:55;33.40;39.50
12166;DHT22;6146;48.128;11.476;2023-06-26T12:24:22;33.10;40.10
12166;DHT22;6146;48.128;11.476;2023-06-26T12:26:54;32.90;41.20
12166;DHT22;6146;48.128;11.476;2023-06-26T12:29:28;33.00;41.30
12166;DHT22;6146;48.128;11.476;2023-06-26T12:31:54;33.30;41.60
12166;DHT22;6146;48.128;11.476;2023-06-26T12:34:26;33.40;39.70
12166;DHT22;6146;48.128;11.476;2023-06-26T12:36:52;33.20;41.00
12166;DHT22;6146;48.128;11.476;2023-06-26T12:39:20;33.10;41.60
12166;DHT22;6146;48.128;11.476;2023-06-26T12:41:53;33.30;40.40
12166;DHT22;6146;48.128;11.476;2023-06-26T12:44:26;33.60;40.30
12166;DHT22;6146;48.128;11.476;2023-06-26T12:46:57;33.70;40.00
12166;DHT22;6146;48.128;11.476;2023-06-26T12:49:39;33.90;41.00
12166;DHT22;6146;48.128;11.476;2023-06-26T12:52:08;34.20;39.10
12166;DHT22;6146;48.128;11.476;2023-06-26T12:54:34;34.10;37.20
12166;DHT22;6146;48.128;11.476;2023-06-26T12:57:00;34.30;39.50
12166;DHT22;6146;48.128;11.476;2023-06-26T12:59:26;34.20;37.90
12166;DHT22;6146;48.128;11.476;2023-06-26T13:01:52;34.20;37.80
12166;DHT22;6146;48.128;11.476;2023-06-26T13:04:18;34.40;39.00
12166;DHT22;6146;48.128;11.476;2023-06-26T13:06:43;34.30;38.60
12166;DHT22;6146;48.128;11.476;2023-06-26T13:09:09;33.80;39.30
12166;DHT22;6146;48.128;11.476;2023-06-26T13:11:36;33.40;39.70
12166;DHT22;6146;48.128;11.476;2023-06-26T13:14:02;32.80;40.80
12166;DHT22;6146;48.128;11.476;2023-06-26T13:16:28;33.10;41.40
12166;DHT22;6146;48.128;11.476;2023-06-26T13:18:54;33.50;40.80
12166;DHT22;6146;48.128;11.476;2023-06-26T13:21:21;33.80;39.90
12166;DHT22;6146;48.128;11.476;2023-06-26T13:23:46;33.90;40.20
12166;DHT22;6146;48.128;11.476;2023-06-26T13:26:12;33.80;40.90
12166;DHT22;6146;48.128;11.476;2023-06-26T13:28:37;33.80;40.10
12166;DHT22;6146;48.128;11.476;2023-06-26T13:31:04;33.90;40.60
12166;DHT22;6146;48.128;11.476;2023-06-26T13:33:30;33.90;40.80
12166;DHT22;6146;48.128;11.476;2023-06-26T13:35:56;33.70;40.30
12166;DHT22;6146;48.128;11.476;2023-06-26T13:38:22;33.60;40.20
12166;DHT22;6146;48.128;11.476;2023-06-26T13:40:54;33.70;42.20
12166;DHT22;6146;48.128;11.476;2023-06-26T13:43:26;33.60;40.60
12166;DHT22;6146;48.128;11.476;2023-06-26T13:45:52;33.30;41.00
12166;DHT22;6146;48.128;11.476;2023-06-26T13:48:17;32.70;42.10
12166;DHT22;6146;48.128;11.476;2023-06-26T13:50:43;32.40;42.40
12166;DHT22;6146;48.128;11.476;2023-06-26T13:53:09;32.00;43.40
12166;DHT22;6146;48.128;11.476;2023-06-26T13:55:35;31.90;45.00
12166;DHT22;6146;48.128;11.476;2023-06-26T13:58:01;32.20;44.50
12166;DHT22;6146;48.128;11.476;2023-06-26T14:00:31;32.60;43.90
12166;DHT22;6146;48.128;11.476;2023-06-26T14:02:56;32.90;43.00
12166;DHT22;6146;48.128;11.476;2023-06-26T14:05:22;33.00;42.00
12166;DHT22;6146;48.128;11.476;2023-06-26T14:07:48;33.10;41.40
12166;DHT22;6146;48.128;11.476;2023-06-26T14:10:14;33.20;41.50
12166;DHT22;6146;48.128;11.476;2023-06-26T14:12:40;33.20;41.30
12166;DHT22;6146;48.128;11.476;2023-06-26T14:15:07;33.40;43.30
12166;DHT22;6146;48.128;11.476;2023-06-26T14:17:32;33.40;42.50
12166;DHT22;6146;48.128;11.476;2023-06-26T14:19:58;33.50;41.50
12166;DHT22;6146;48.128;11.476;2023-06-26T14:22:24;33.40;41.10
12166;DHT22;6146;48.128;11.476;2023-06-26T14:24:50;33.40;41.50
12166;DHT22;6146;48.128;11.476;2023-06-26T14:27:16;33.20;41.40
12166;DHT22;6146;48.128;11.476;2023-06-26T14:29:41;33.30;42.10
12166;DHT22;6146;48.128;11.476;2023-06-26T14:32:07;33.50;41.30
12166;DHT22;6146;48.128;11.476;2023-06-26T14:34:33;33.40;41.60
12166;DHT22;6146;48.128;11.476;2023-06-26T14:36:58;33.60;41.40
12166;DHT22;6146;48.128;11.476;2023-06-26T14:39:24;33.70;41.20
12166;DHT22;6146;48.128;11.476;2023-06-26T14:41:50;33.70;41.00
12166;DHT22;6146;48.128;11.476;2023-06-26T14:44:15;33.60;41.90
12166;DHT22;6146;48.128;11.476;2023-06-26T14:46:41;33.70;41.40
12166;DHT22;6146;48.128;11.476;2023-06-26T14:49:07;33.70;41.20
12166;DHT22;6146;48.128;11.476;2023-06-26T14:51:33;33.50;40.50
12166;DHT22;6146;48.128;11.476;2023-06-26T14:53:59;33.50;41.10
12166;DHT22;6146;48.128;11.476;2023-06-26T14:56:25;33.40;41.20
12166;DHT22;6146;48.128;11.476;2023-06-26T14:58:51;33.10;40.60
12166;DHT22;6146;48.128;11.476;2023-06-26T15:01:20;32.90;41.20
12166;DHT22;6146;48.128;11.476;2023-06-26T15:03:48;33.00;41.80
12166;DHT22;6146;48.128;11.476;2023-06-26T15:06:14;33.30;41.30
12166;DHT22;6146;48.128;11.476;2023-06-26T15:08:39;33.40;40.60
12166;DHT22;6146;48.128;11.476;2023-06-26T15:11:05;33.40;42.20
12166;DHT22;6146;48.128;11.476;2023-06-26T15:13:31;33.50;41.70
12166;DHT22;6146;48.128;11.476;2023-06-26T15:15:57;33.10;41.80
12166;DHT22;6146;48.128;11.476;2023-06-26T15:18:22;32.80;40.70
12166;DHT22;6146;48.128;11.476;2023-06-26T15:20:48;32.40;42.60
12166;DHT22;6146;48.128;11.476;2023-06-26T15:23:13;32.20;42.90
12166;DHT22;6146;48.128;11.476;2023-06-26T15:25:39;32.00;43.40
12166;DHT22;6146;48.128;11.476;2023-06-26T15:28:06;31.80;43.70
12166;DHT22;6146;48.128;11.476;2023-06-26T15:30:31;31.70;45.20
12166;DHT22;6146;48.128;11.476;2023-06-26T15:32:57;31.50;44.70
12166;DHT22;6146;48.128;11.476;2023-06-26T15:35:23;31.30;43.90